Time;durP1;ratioP1;P1;durP2;ratioP2;P2;SDS_P1;SDS_P2;PMS_P1;PMS_P2;Temp;Humidity;BMP_temperature;BMP_pressure;BME280_temperature;BME280_humidity;BME280_pressure;Samples;Min_cycle;Max_cycle;Signal;HPM_P1;HPM_P2
2022/03/30 00:00:42;;;;;;;40.13;23.93;;;16.30;70.90;;;;;;5020409;28;20230;-69
2022/03/30 00:03:08;;;;;;;32.30;22.23;;;15.90;73.40;;;;;;5022203;28;20373;-69
2022/03/30 00:05:34;;;;;;;30.20;20.67;;;15.90;75.40;;;;;;5021668;28;20251;-69
2022/03/30 00:07:59;;;;;;;37.90;24.83;;;15.90;77.90;;;;;;5023380;28;20193;-69
2022/03/30 00:10:25;;;;;;;38.50;23.83;;;16.10;76.50;;;;;;5022062;28;20229;-68
2022/03/30 00:12:51;;;;;;;37.00;23.20;;;16.10;79.10;;;;;;5020491;28;20189;-68
2022/03/30 00:15:17;;;;;;;38.33;24.93;;;16.20;79.40;;;;;;5020650;28;20215;-69
2022/03/30 00:17:44;;;;;;;34.97;23.30;;;16.20;80.30;;;;;;5020902;28;20275;-68
2022/03/30 00:20:10;;;;;;;39.20;24.50;;;16.10;83.10;;;;;;5021841;28;20449;-68
2022/03/30 00:22:38;;;;;;;35.50;23.77;;;16.00;82.40;;;;;;5017909;28;20861;-70
2022/03/30 00:25:05;;;;;;;36.60;24.67;;;16.10;81.50;;;;;;5019487;28;20435;-68
2022/03/30 00:27:31;;;;;;;37.27;24.60;;;16.20;82.60;;;;;;5021976;28;20427;-68
2022/03/30 00:29:57;;;;;;;32.50;22.43;;;16.10;83.80;;;;;;5022111;28;20521;-67
2022/03/30 00:32:22;;;;;;;32.90;22.63;;;15.60;85.50;;;;;;5018543;28;20201;-68
2022/03/30 00:34:48;;;;;;;30.70;21.10;;;15.20;89.50;;;;;;5020830;28;20198;-67
2022/03/30 00:37:14;;;;;;;35.67;23.70;;;15.10;90.60;;;;;;5021768;28;20209;-69
2022/03/30 00:39:40;;;;;;;29.90;22.20;;;15.10;90.90;;;;;;5022440;28;20544;-69
2022/03/30 00:42:20;;;;;;;35.07;22.37;;;15.00;91.50;;;;;;5018536;28;20463;-69
2022/03/30 00:44:48;;;;;;;31.87;22.40;;;14.90;91.40;;;;;;5020720;28;20658;-69
2022/03/30 00:47:16;;;;;;;36.17;21.73;;;14.80;92.10;;;;;;5023920;28;20466;-69
2022/03/30 00:49:42;;;;;;;35.20;23.23;;;14.80;92.70;;;;;;5016794;28;20466;-69
2022/03/30 00:52:09;;;;;;;35.10;24.50;;;14.80;93.10;;;;;;5017332;28;20494;-69
2022/03/30 00:54:36;;;;;;;36.57;23.00;;;14.50;94.50;;;;;;5017994;28;20181;-69
2022/03/30 00:57:03;;;;;;;38.63;23.70;;;14.40;96.60;;;;;;5020244;28;20647;-68
2022/03/30 00:59:29;;;;;;;42.17;24.70;;;14.70;96.80;;;;;;5019892;28;20957;-68
2022/03/30 01:01:54;;;;;;;40.67;25.13;;;14.50;97.70;;;;;;5019078;28;20463;-68
2022/03/30 01:04:20;;;;;;;37.53;25.27;;;14.60;99.30;;;;;;5016638;28;20208;-68
2022/03/30 01:06:46;;;;;;;42.30;25.10;;;14.70;99.60;;;;;;5022833;28;20177;-68
2022/03/30 01:09:12;;;;;;;38.40;24.30;;;14.80;99.90;;;;;;5022264;28;20633;-67
2022/03/30 01:11:38;;;;;;;41.27;25.70;;;14.80;99.90;;;;;;5017695;28;20443;-68
2022/03/30 01:14:04;;;;;;;39.23;25.57;;;14.70;99.90;;;;;;5021379;28;20200;-68
2022/03/30 01:16:30;;;;;;;37.20;24.40;;;14.80;99.90;;;;;;5019899;28;20194;-69
2022/03/30 01:19:07;;;;;;;39.67;25.30;;;14.90;99.90;;;;;;5022180;28;20794;-69
2022/03/30 01:21:37;;;;;;;40.10;24.47;;;15.10;99.90;;;;;;5016551;28;20295;-67
2022/03/30 01:24:03;;;;;;;36.70;24.23;;;15.10;99.90;;;;;;5022301;28;20555;-68
2022/03/30 01:26:29;;;;;;;38.53;23.43;;;15.20;99.90;;;;;;5019169;28;20428;-68
2022/03/30 01:28:55;;;;;;;35.10;23.00;;;15.20;99.90;;;;;;5020947;28;20482;-67
2022/03/30 01:34:05;;;;;;;32.10;22.77;;;15.30;99.90;;;;;;5021616;28;20489;-68
2022/03/30 01:36:31;;;;;;;33.53;20.27;;;15.30;99.90;;;;;;5022504;28;20427;-67
2022/03/30 01:38:57;;;;;;;30.83;21.83;;;15.20;99.90;;;;;;5022182;28;20994;-68
2022/03/30 01:41:22;;;;;;;35.17;23.20;;;15.30;99.90;;;;;;5025335;28;20239;-68
2022/03/30 01:43:48;;;;;;;32.73;21.73;;;15.40;99.90;;;;;;5024010;28;20569;-68
2022/03/30 01:46:13;;;;;;;33.13;21.57;;;15.40;99.90;;;;;;5025954;28;20184;-69
2022/03/30 01:48:42;;;;;;;29.97;20.97;;;15.40;99.90;;;;;;5023843;28;20227;-68
2022/03/30 01:51:08;;;;;;;34.63;21.93;;;15.30;99.90;;;;;;5022278;28;20689;-68
2022/03/30 01:53:34;;;;;;;33.40;21.60;;;15.40;99.90;;;;;;5027556;28;20477;-68
2022/03/30 01:55:59;;;;;;;26.37;19.30;;;15.50;99.90;;;;;;5022567;28;20643;-68
2022/03/30 01:58:25;;;;;;;33.80;20.53;;;15.40;99.90;;;;;;5022926;28;20224;-67
2022/03/30 02:00:51;;;;;;;30.43;21.10;;;15.40;99.90;;;;;;5019743;28;20222;-68
2022/03/30 02:03:17;;;;;;;31.93;21.23;;;15.10;99.90;;;;;;5020862;28;20223;-68
2022/03/30 02:05:42;;;;;;;31.43;21.90;;;15.10;99.90;;;;;;5021209;28;20473;-67
2022/03/30 02:08:08;;;;;;;33.70;21.07;;;15.10;99.90;;;;;;5019665;28;20190;-68
2022/03/30 02:10:33;;;;;;;31.50;21.20;;;15.30;99.90;;;;;;5023808;28;20188;-68
2022/03/30 02:12:59;;;;;;;28.40;19.77;;;14.90;99.90;;;;;;5022950;28;20204;-68
2022/03/30 02:15:25;;;;;;;28.50;21.30;;;15.00;99.90;;;;;;5017514;28;20188;-68
2022/03/30 02:17:51;;;;;;;27.80;20.17;;;14.80;99.90;;;;;;5019514;28;20614;-67
2022/03/30 02:20:17;;;;;;;30.13;20.43;;;14.90;99.90;;;;;;5021771;28;20427;-68
2022/03/30 02:22:42;;;;;;;23.40;19.37;;;15.10;99.90;;;;;;5020308;28;20457;-69
2022/03/30 02:25:11;;;;;;;27.40;20.27;;;15.00;99.90;;;;;;5022523;28;20191;-68
2022/03/30 02:27:37;;;;;;;29.47;20.93;;;15.00;99.90;;;;;;5024701;28;20261;-68
2022/03/30 02:30:04;;;;;;;29.83;19.63;;;15.00;99.90;;;;;;5024736;28;20434;-68
2022/03/30 02:32:29;;;;;;;31.70;21.00;;;14.90;99.90;;;;;;5023553;28;20869;-68
2022/03/30 02:34:55;;;;;;;31.13;21.60;;;14.60;99.90;;;;;;5016188;28;20439;-67
2022/03/30 02:37:20;;;;;;;28.83;21.33;;;14.50;99.90;;;;;;5026268;28;20189;-68
2022/03/30 02:39:46;;;;;;;28.60;20.40;;;14.50;99.90;;;;;;5020085;28;20720;-69
2022/03/30 02:42:12;;;;;;;29.67;19.90;;;14.70;99.90;;;;;;5023679;28;20254;-68
2022/03/30 02:44:38;;;;;;;31.97;22.20;;;14.10;99.90;;;;;;5021614;28;20864;-69
2022/03/30 02:47:05;;;;;;;32.77;20.17;;;13.90;99.90;;;;;;5024992;28;20189;-68
2022/03/30 02:49:31;;;;;;;26.87;20.10;;;14.00;99.90;;;;;;5020344;28;20440;-69
2022/03/30 02:51:56;;;;;;;31.67;21.53;;;14.10;99.90;;;;;;5021263;28;20488;-69
2022/03/30 02:54:24;;;;;;;27.33;20.00;;;14.10;99.90;;;;;;5026432;28;20185;-67
2022/03/30 02:56:50;;;;;;;32.00;21.40;;;14.10;99.90;;;;;;5021918;28;20192;-68
2022/03/30 02:59:16;;;;;;;35.53;20.73;;;14.00;99.90;;;;;;5021504;28;20836;-67
2022/03/30 03:01:41;;;;;;;32.47;21.43;;;13.80;99.90;;;;;;5022150;28;20462;-69
2022/03/30 03:04:07;;;;;;;32.67;21.00;;;13.90;99.90;;;;;;5022224;28;20213;-68
2022/03/30 03:06:32;;;;;;;32.33;20.67;;;13.90;99.90;;;;;;5023349;28;20564;-68
2022/03/30 03:08:58;;;;;;;31.47;20.70;;;13.90;99.90;;;;;;5022404;28;20213;-68
2022/03/30 03:11:27;;;;;;;31.20;22.50;;;13.90;99.90;;;;;;5024457;28;20751;-68
2022/03/30 03:13:52;;;;;;;29.73;20.20;;;13.90;99.90;;;;;;5020275;28;20187;-68
2022/03/30 03:16:18;;;;;;;32.80;20.63;;;14.00;99.90;;;;;;5020112;28;20431;-68
2022/03/30 03:18:45;;;;;;;28.00;21.53;;;14.00;99.90;;;;;;5019772;28;20330;-68
2022/03/30 03:21:11;;;;;;;27.90;21.23;;;14.10;99.90;;;;;;5022133;28;20236;-69
2022/03/30 03:23:37;;;;;;;31.30;20.57;;;14.30;99.90;;;;;;5022594;28;20502;-68
2022/03/30 03:26:02;;;;;;;29.97;20.40;;;14.10;99.90;;;;;;5016425;28;20191;-67
2022/03/30 03:28:28;;;;;;;30.53;21.07;;;13.70;99.90;;;;;;5021386;28;20185;-68
2022/03/30 03:30:54;;;;;;;33.83;21.70;;;13.50;99.90;;;;;;5019300;28;20658;-69
2022/03/30 03:33:20;;;;;;;36.13;22.73;;;13.30;99.90;;;;;;5018091;28;20176;-68
2022/03/30 03:35:46;;;;;;;35.03;22.20;;;13.40;99.90;;;;;;5019430;28;20457;-67
2022/03/30 03:38:11;;;;;;;32.47;22.03;;;13.20;99.90;;;;;;5022973;28;20227;-68
2022/03/30 03:40:37;;;;;;;37.10;22.80;;;13.40;99.90;;;;;;5017960;28;20215;-68
2022/03/30 03:43:04;;;;;;;38.83;24.43;;;13.30;99.90;;;;;;5017734;28;20629;-70
2022/03/30 03:45:30;;;;;;;40.13;22.73;;;13.20;99.90;;;;;;5018218;28;20196;-68
2022/03/30 03:47:56;;;;;;;42.20;24.70;;;13.40;99.90;;;;;;5018547;28;20810;-69
2022/03/30 03:50:22;;;;;;;32.00;22.97;;;13.30;99.90;;;;;;5021982;28;20765;-68
2022/03/30 03:52:48;;;;;;;38.20;23.30;;;13.30;99.90;;;;;;5017692;28;20197;-68
2022/03/30 03:55:14;;;;;;;37.30;23.33;;;13.30;99.90;;;;;;5021440;28;20438;-69
2022/03/30 03:57:41;;;;;;;39.40;24.80;;;13.30;99.90;;;;;;5019917;28;20439;-69
2022/03/30 04:00:09;;;;;;;41.23;25.23;;;13.20;99.90;;;;;;5023532;28;20330;-69
2022/03/30 04:02:34;;;;;;;33.60;23.77;;;13.00;99.90;;;;;;5018393;28;20478;-69
2022/03/30 04:05:00;;;;;;;33.93;24.00;;;12.90;99.90;;;;;;5024419;28;20474;-69
2022/03/30 04:07:26;;;;;;;32.97;21.90;;;12.80;99.90;;;;;;5020551;28;20287;-68
2022/03/30 04:09:51;;;;;;;28.97;20.10;;;12.70;99.90;;;;;;5023395;28;20969;-68
2022/03/30 04:12:17;;;;;;;36.83;20.90;;;12.60;99.90;;;;;;5021770;28;20743;-68
2022/03/30 04:14:43;;;;;;;25.33;18.77;;;12.70;99.90;;;;;;5019316;28;20181;-67
2022/03/30 04:17:08;;;;;;;29.20;19.77;;;12.60;99.90;;;;;;5023228;28;20277;-68
2022/03/30 04:19:34;;;;;;;31.90;19.47;;;12.40;99.90;;;;;;5021483;28;20187;-68
2022/03/30 04:22:01;;;;;;;30.27;19.70;;;12.50;99.90;;;;;;5020176;28;20647;-70
2022/03/30 04:24:28;;;;;;;28.27;19.50;;;12.30;99.90;;;;;;5019226;28;20463;-69
2022/03/30 04:26:53;;;;;;;31.80;21.03;;;12.30;99.90;;;;;;5021604;28;20442;-67
2022/03/30 04:29:19;;;;;;;29.37;20.80;;;12.20;99.90;;;;;;5019884;28;20427;-68
2022/03/30 04:31:44;;;;;;;30.90;20.93;;;12.10;99.90;;;;;;5020441;28;20291;-69
2022/03/30 04:34:10;;;;;;;30.20;19.97;;;12.00;99.90;;;;;;5019744;28;20188;-70
2022/03/30 04:36:36;;;;;;;29.87;18.20;;;12.10;99.90;;;;;;5022227;28;20241;-69
2022/03/30 04:39:02;;;;;;;32.23;20.50;;;12.00;99.90;;;;;;5021414;28;20685;-68
2022/03/30 04:41:27;;;;;;;31.20;21.03;;;12.20;99.90;;;;;;5018786;28;20356;-68
2022/03/30 04:43:53;;;;;;;36.53;20.70;;;12.10;99.90;;;;;;5019701;28;20589;-68
2022/03/30 04:46:19;;;;;;;33.50;20.93;;;11.80;99.90;;;;;;5018000;28;20365;-68
2022/03/30 04:48:44;;;;;;;29.70;20.07;;;11.70;99.90;;;;;;5019872;28;20208;-68
2022/03/30 04:51:10;;;;;;;31.43;20.93;;;11.60;99.90;;;;;;5018627;28;20211;-68
2022/03/30 04:53:36;;;;;;;33.73;21.03;;;11.60;99.90;;;;;;5022144;28;20563;-69
2022/03/30 04:56:02;;;;;;;34.80;21.70;;;11.70;99.90;;;;;;5021754;28;20185;-68
2022/03/30 04:58:27;;;;;;;34.80;23.27;;;11.60;99.90;;;;;;5017963;28;20189;-68
2022/03/30 05:00:53;;;;;;;34.77;20.23;;;11.60;99.90;;;;;;5021730;28;20867;-69
2022/03/30 05:03:18;;;;;;;31.70;20.90;;;11.50;99.90;;;;;;5017916;28;20254;-69
2022/03/30 05:05:44;;;;;;;28.37;20.60;;;11.60;99.90;;;;;;5018616;28;20236;-70
2022/03/30 05:08:10;;;;;;;35.27;21.50;;;11.50;99.90;;;;;;5024208;28;20838;-68
2022/03/30 05:10:36;;;;;;;28.50;20.80;;;11.40;99.90;;;;;;5019050;28;20181;-68
2022/03/30 05:13:04;;;;;;;34.23;20.90;;;11.40;99.90;;;;;;5023140;28;20276;-68
2022/03/30 05:15:30;;;;;;;34.30;20.10;;;11.50;99.90;;;;;;5020411;28;20176;-68
2022/03/30 05:17:56;;;;;;;30.80;21.13;;;11.50;99.90;;;;;;5027773;28;20433;-68
2022/03/30 05:20:22;;;;;;;39.30;22.07;;;11.30;99.90;;;;;;5023279;28;20185;-68
2022/03/30 05:22:48;;;;;;;29.10;19.77;;;11.40;99.90;;;;;;5021794;28;20292;-68
2022/03/30 05:25:19;;;;;;;31.73;20.63;;;11.50;99.90;;;;;;5025548;28;20431;-68
2022/03/30 05:27:45;;;;;;;39.13;21.33;;;11.40;99.90;;;;;;5022512;28;20468;-68
2022/03/30 05:30:11;;;;;;;38.87;20.43;;;11.30;99.90;;;;;;5025106;28;20434;-68
2022/03/30 05:32:37;;;;;;;38.20;22.17;;;11.30;99.90;;;;;;5022771;28;20832;-68
2022/03/30 05:35:04;;;;;;;45.37;21.10;;;11.50;99.90;;;;;;5026463;28;20420;-67
2022/03/30 05:37:30;;;;;;;31.50;20.80;;;11.50;99.90;;;;;;5025620;28;20188;-68
2022/03/30 05:39:56;;;;;;;32.10;19.50;;;11.60;99.90;;;;;;5024191;28;20438;-68
2022/03/30 05:42:22;;;;;;;31.77;19.37;;;11.60;99.90;;;;;;5021305;28;20532;-68
2022/03/30 05:44:50;;;;;;;39.00;19.80;;;11.50;99.90;;;;;;5026255;28;20711;-68
2022/03/30 05:47:17;;;;;;;30.43;17.50;;;11.40;99.90;;;;;;5025010;28;20535;-68
2022/03/30 05:49:42;;;;;;;35.63;19.70;;;11.50;99.90;;;;;;5024589;28;20858;-68
2022/03/30 05:52:09;;;;;;;32.73;19.10;;;11.50;99.90;;;;;;5025222;28;20451;-67
2022/03/30 05:54:35;;;;;;;27.90;17.90;;;11.70;99.90;;;;;;5023204;28;20185;-68
2022/03/30 05:57:01;;;;;;;27.30;17.50;;;11.60;99.90;;;;;;5024637;28;20936;-68
2022/03/30 05:59:32;;;;;;;30.23;17.17;;;11.80;99.90;;;;;;5020904;28;20933;-68
2022/03/30 06:01:59;;;;;;;31.87;16.57;;;11.90;99.90;;;;;;5023565;28;20459;-69
2022/03/30 06:04:25;;;;;;;35.40;16.87;;;11.90;99.90;;;;;;5023306;28;20934;-69
2022/03/30 06:06:51;;;;;;;42.13;19.87;;;12.00;99.90;;;;;;5019199;28;20467;-68
2022/03/30 06:09:17;;;;;;;28.93;16.57;;;12.30;99.90;;;;;;5023546;28;20428;-68
2022/03/30 06:11:43;;;;;;;32.87;18.20;;;12.60;99.90;;;;;;5023119;28;20454;-69
2022/03/30 06:14:09;;;;;;;27.43;16.03;;;12.10;99.90;;;;;;5021894;28;20485;-67
2022/03/30 06:16:35;;;;;;;24.80;14.70;;;11.90;99.90;;;;;;5018785;28;20436;-68
2022/03/30 06:19:01;;;;;;;28.83;15.50;;;12.00;99.90;;;;;;5019131;28;20199;-68
2022/03/30 06:21:28;;;;;;;27.83;14.70;;;12.20;99.90;;;;;;5021622;28;21043;-67
2022/03/30 06:23:55;;;;;;;33.57;15.67;;;12.30;99.90;;;;;;5022571;28;20558;-68
2022/03/30 06:26:20;;;;;;;24.60;14.30;;;12.30;99.90;;;;;;5020286;28;20516;-68
2022/03/30 06:28:47;;;;;;;24.30;15.13;;;12.40;99.90;;;;;;5023166;28;20423;-68
2022/03/30 06:31:17;;;;;;;25.87;14.63;;;12.40;99.90;;;;;;5022843;28;20253;-68
2022/03/30 06:33:46;;;;;;;25.83;14.83;;;12.60;99.90;;;;;;5023287;28;20810;-68
2022/03/30 06:36:12;;;;;;;33.50;16.73;;;12.30;99.90;;;;;;5023683;28;20427;-68
2022/03/30 06:38:38;;;;;;;24.13;13.93;;;12.30;99.90;;;;;;5019772;28;20871;-68
2022/03/30 06:41:04;;;;;;;26.67;14.60;;;12.40;99.90;;;;;;5025500;28;21004;-69
2022/03/30 06:43:30;;;;;;;34.00;16.20;;;12.60;99.90;;;;;;5023045;28;20971;-69
2022/03/30 06:45:56;;;;;;;30.20;15.17;;;12.80;99.90;;;;;;5023838;28;20455;-68
2022/03/30 06:48:21;;;;;;;25.50;14.60;;;12.60;99.90;;;;;;5021962;28;20634;-68
2022/03/30 06:50:47;;;;;;;22.53;12.00;;;12.60;99.90;;;;;;5023958;28;20235;-68
2022/03/30 06:53:13;;;;;;;24.13;12.60;;;12.60;99.90;;;;;;5024431;28;20208;-69
2022/03/30 06:55:38;;;;;;;26.87;13.43;;;12.30;99.90;;;;;;5019403;28;20188;-69
2022/03/30 06:58:05;;;;;;;20.50;12.20;;;12.70;99.90;;;;;;5025847;28;20181;-68
2022/03/30 07:00:31;;;;;;;20.50;11.50;;;12.50;99.90;;;;;;5018447;28;20216;-69
2022/03/30 07:02:56;;;;;;;21.57;10.20;;;12.60;99.90;;;;;;5020354;28;20472;-68
2022/03/30 07:05:22;;;;;;;17.63;10.30;;;13.10;99.90;;;;;;5021896;28;20467;-69
2022/03/30 07:10:33;;;;;;;21.90;12.30;;;13.70;99.90;;;;;;5021567;28;20299;-68
2022/03/30 07:13:03;;;;;;;23.53;12.33;;;13.70;99.90;;;;;;5019757;28;20440;-69
2022/03/30 07:15:32;;;;;;;20.37;11.40;;;13.90;99.90;;;;;;5022749;28;20424;-68
2022/03/30 07:18:00;;;;;;;18.50;11.83;;;14.10;99.90;;;;;;5021408;28;20435;-68
2022/03/30 07:20:26;;;;;;;22.90;12.03;;;14.20;99.90;;;;;;5020073;28;20431;-68
2022/03/30 07:22:53;;;;;;;21.60;10.93;;;14.10;99.90;;;;;;5022156;28;20424;-69
2022/03/30 07:25:21;;;;;;;15.20;11.20;;;14.00;99.90;;;;;;5021990;28;20450;-68
2022/03/30 07:27:50;;;;;;;23.07;11.17;;;14.10;99.90;;;;;;5021708;28;20422;-68
2022/03/30 07:30:17;;;;;;;19.80;11.90;;;14.00;99.90;;;;;;5017774;28;20435;-69
2022/03/30 07:32:45;;;;;;;20.93;11.63;;;14.10;99.90;;;;;;5023266;28;20431;-68
2022/03/30 07:35:14;;;;;;;23.97;11.43;;;14.10;99.90;;;;;;5021316;28;20435;-69
2022/03/30 07:37:41;;;;;;;17.70;12.27;;;14.00;99.90;;;;;;5019025;28;20436;-69
2022/03/30 07:40:08;;;;;;;22.70;14.73;;;13.90;99.90;;;;;;5019606;28;20427;-69
2022/03/30 07:42:34;;;;;;;30.80;17.63;;;13.90;99.90;;;;;;5022397;28;20463;-69
2022/03/30 07:45:00;;;;;;;40.60;25.80;;;13.90;99.90;;;;;;5017654;28;20474;-69
2022/03/30 07:47:26;;;;;;;33.70;19.60;;;13.90;99.90;;;;;;5019673;28;20883;-68
2022/03/30 07:49:52;;;;;;;32.63;18.03;;;13.80;99.90;;;;;;5021964;28;20546;-69
2022/03/30 07:52:20;;;;;;;26.13;19.30;;;13.60;99.90;;;;;;5017745;28;20283;-68
2022/03/30 07:54:47;;;;;;;33.77;20.27;;;13.60;99.90;;;;;;5021910;28;20557;-67
2022/03/30 07:57:13;;;;;;;32.47;22.10;;;13.60;99.90;;;;;;5018161;28;20431;-69
2022/03/30 07:59:39;;;;;;;34.10;22.90;;;13.50;99.90;;;;;;5021643;28;20438;-69
2022/03/30 08:02:05;;;;;;;35.17;23.70;;;13.40;99.90;;;;;;5023511;28;20216;-68
2022/03/30 08:04:30;;;;;;;39.80;24.33;;;13.50;99.90;;;;;;5020763;28;20267;-69
2022/03/30 08:06:57;;;;;;;42.90;25.73;;;13.30;99.90;;;;;;5022177;28;20526;-70
2022/03/30 08:09:22;;;;;;;37.73;24.40;;;13.20;99.90;;;;;;5019436;28;20743;-70
2022/03/30 08:11:48;;;;;;;33.90;23.17;;;13.20;99.90;;;;;;5020007;28;20708;-69
2022/03/30 08:14:14;;;;;;;35.37;19.60;;;13.20;99.90;;;;;;5024583;28;20709;-69
2022/03/30 08:16:40;;;;;;;28.40;19.20;;;13.00;99.90;;;;;;5019644;28;20185;-69
2022/03/30 08:19:06;;;;;;;29.37;19.37;;;12.90;99.90;;;;;;5021408;28;20200;-68
2022/03/30 08:24:16;;;;;;;30.60;20.17;;;12.50;99.90;;;;;;5019008;28;20346;-68
2022/03/30 08:26:42;;;;;;;34.97;21.80;;;12.40;99.90;;;;;;5021830;28;20511;-68
2022/03/30 08:29:10;;;;;;;34.27;20.70;;;12.20;99.90;;;;;;5022510;28;20831;-69
2022/03/30 08:31:36;;;;;;;35.30;20.80;;;12.00;99.90;;;;;;5021244;28;20666;-68
2022/03/30 08:34:01;;;;;;;37.17;21.13;;;12.00;99.90;;;;;;5020823;28;20427;-68
2022/03/30 08:36:29;;;;;;;36.53;21.90;;;12.10;99.90;;;;;;5020849;28;20453;-68
2022/03/30 08:38:56;;;;;;;35.53;23.10;;;11.90;99.90;;;;;;5020913;28;20822;-68
2022/03/30 08:41:22;;;;;;;36.20;21.53;;;12.10;99.90;;;;;;5018302;28;20444;-68
2022/03/30 08:43:48;;;;;;;31.43;20.67;;;12.00;99.90;;;;;;5021551;28;20485;-69
2022/03/30 08:46:14;;;;;;;35.40;20.10;;;11.90;99.90;;;;;;5024112;28;20177;-69
2022/03/30 08:48:40;;;;;;;34.83;22.47;;;11.90;99.90;;;;;;5023449;28;20434;-69
2022/03/30 08:51:07;;;;;;;40.47;22.50;;;12.10;99.90;;;;;;5024867;28;20716;-69
2022/03/30 08:53:34;;;;;;;41.00;24.17;;;12.20;99.90;;;;;;5022000;28;20431;-68
2022/03/30 08:56:00;;;;;;;42.10;23.63;;;12.20;99.90;;;;;;5027513;28;20807;-69
2022/03/30 08:58:26;;;;;;;34.30;21.83;;;12.00;99.90;;;;;;5021108;28;20451;-69
2022/03/30 09:00:52;;;;;;;40.63;24.57;;;12.00;99.90;;;;;;5027719;28;20462;-68
2022/03/30 09:03:19;;;;;;;34.50;22.63;;;12.00;99.90;;;;;;5025614;28;20525;-69
2022/03/30 09:05:44;;;;;;;38.43;24.30;;;11.90;99.90;;;;;;5025866;28;20424;-69
2022/03/30 09:08:14;;;;;;;43.93;24.67;;;11.90;99.90;;;;;;5020560;28;20423;-67
2022/03/30 09:10:42;;;;;;;39.30;25.17;;;11.70;99.90;;;;;;5026975;28;20556;-69
2022/03/30 09:13:10;;;;;;;46.20;25.30;;;11.70;99.90;;;;;;5021905;28;20439;-68
2022/03/30 09:15:38;;;;;;;48.20;26.03;;;11.60;99.90;;;;;;5021786;28;20503;-68
2022/03/30 09:18:05;;;;;;;41.63;26.30;;;11.60;99.90;;;;;;5021975;28;20435;-68
2022/03/30 09:20:31;;;;;;;43.30;26.63;;;11.50;99.90;;;;;;5017063;28;21033;-68
2022/03/30 09:23:00;;;;;;;40.67;25.63;;;11.50;99.90;;;;;;5021854;28;20428;-69
2022/03/30 09:25:31;;;;;;;38.93;23.77;;;11.60;99.90;;;;;;5017621;28;20259;-69
2022/03/30 09:27:59;;;;;;;39.77;24.47;;;11.70;99.90;;;;;;5024050;28;20453;-69
2022/03/30 09:30:26;;;;;;;38.00;25.90;;;11.70;99.90;;;;;;5024425;28;20959;-69
2022/03/30 09:32:54;;;;;;;39.80;24.33;;;11.70;99.90;;;;;;5020402;28;20424;-69
2022/03/30 09:35:27;;;;;;;38.20;25.10;;;11.70;99.90;;;;;;5021391;28;20714;-69
2022/03/30 09:38:14;;;;;;;44.10;24.87;;;11.60;99.90;;;;;;5023671;28;20494;-69
2022/03/30 09:41:04;;;;;;;39.43;25.47;;;11.90;99.90;;;;;;5024952;28;20570;-69
2022/03/30 09:43:34;;;;;;;46.97;27.00;;;11.70;99.90;;;;;;5019907;28;20471;-69
2022/03/30 09:46:06;;;;;;;41.37;26.77;;;11.60;99.90;;;;;;5027889;28;20423;-69
2022/03/30 09:48:39;;;;;;;42.23;28.00;;;11.70;99.90;;;;;;5023271;28;20427;-69
2022/03/30 09:51:06;;;;;;;45.90;26.93;;;11.70;99.90;;;;;;5022524;28;20833;-69
2022/03/30 09:53:34;;;;;;;39.83;25.97;;;11.70;99.90;;;;;;5022335;28;20932;-70
2022/03/30 09:56:15;;;;;;;45.80;27.40;;;11.60;99.90;;;;;;5025239;28;20952;-68
2022/03/30 09:58:42;;;;;;;43.73;27.93;;;11.50;99.90;;;;;;5021346;28;20442;-69
2022/03/30 10:01:29;;;;;;;44.83;28.00;;;11.50;99.90;;;;;;5024098;28;20474;-68
2022/03/30 10:04:00;;;;;;;47.47;27.63;;;11.50;99.90;;;;;;5026273;28;20475;-68
2022/03/30 10:06:36;;;;;;;40.40;26.20;;;11.60;99.90;;;;;;5024468;28;20415;-69
2022/03/30 10:09:03;;;;;;;44.63;27.00;;;11.60;99.90;;;;;;5023003;28;20431;-68
2022/03/30 10:11:29;;;;;;;45.60;28.03;;;11.40;99.90;;;;;;5021660;28;20901;-69
2022/03/30 10:13:59;;;;;;;45.83;28.80;;;11.50;99.90;;;;;;5024023;28;20423;-68
2022/03/30 10:16:26;;;;;;;44.03;27.60;;;11.40;99.90;;;;;;5024588;28;20427;-68
2022/03/30 10:18:52;;;;;;;41.13;27.60;;;11.50;99.90;;;;;;5021877;28;20899;-68
2022/03/30 10:21:23;;;;;;;41.23;26.37;;;11.60;99.90;;;;;;5025305;28;20490;-69
2022/03/30 10:24:26;;;;;;;46.97;28.47;;;11.50;99.90;;;;;;5021516;28;20231;-69
2022/03/30 10:27:04;;;;;;;44.40;27.67;;;11.40;99.90;;;;;;5021039;28;20991;-68
2022/03/30 10:29:31;;;;;;;41.57;27.37;;;11.50;99.90;;;;;;5023470;28;20435;-69
2022/03/30 10:32:13;;;;;;;40.47;25.20;;;11.50;99.90;;;;;;5037856;28;20939;-69
2022/03/30 10:34:52;;;;;;;41.00;26.30;;;11.50;99.90;;;;;;5019493;28;20435;-68
2022/03/30 10:37:25;;;;;;;41.27;25.50;;;11.70;99.90;;;;;;5024859;28;20447;-68
2022/03/30 10:40:03;;;;;;;38.30;24.77;;;11.50;99.90;;;;;;5020874;28;20461;-68
2022/03/30 10:42:52;;;;;;;37.97;25.13;;;11.50;99.90;;;;;;5023128;28;20490;-68
2022/03/30 10:45:43;;;;;;;41.10;25.97;;;11.50;99.90;;;;;;5020854;28;20462;-69
2022/03/30 10:48:36;;;;;;;40.63;25.90;;;11.60;99.90;;;;;;5018565;28;20847;-69
2022/03/30 10:51:10;;;;;;;41.83;26.30;;;11.60;99.90;;;;;;5020994;28;20482;-68
2022/03/30 10:53:47;;;;;;;44.10;26.67;;;11.60;99.90;;;;;;5017503;28;20428;-69
2022/03/30 10:56:21;;;;;;;45.03;27.40;;;11.60;99.90;;;;;;5022443;28;20868;-69
2022/03/30 10:58:52;;;;;;;44.33;27.73;;;11.40;99.90;;;;;;5022638;28;20424;-69
2022/03/30 11:01:27;;;;;;;50.37;29.10;;;11.30;99.90;;;;;;5015265;28;20813;-69
2022/03/30 11:03:58;;;;;;;50.20;27.33;;;11.00;99.90;;;;;;5021257;28;20467;-68
2022/03/30 11:06:24;;;;;;;42.73;26.77;;;11.10;99.90;;;;;;5021647;28;20490;-68
2022/03/30 11:08:51;;;;;;;46.80;29.67;;;11.20;99.90;;;;;;5022422;28;20447;-68
2022/03/30 11:11:23;;;;;;;47.17;29.40;;;11.20;99.90;;;;;;5017321;28;21031;-69
2022/03/30 11:13:49;;;;;;;47.20;27.10;;;11.30;99.90;;;;;;5021285;28;20442;-68
2022/03/30 11:16:15;;;;;;;46.70;30.03;;;11.30;99.90;;;;;;5020721;28;20427;-69
2022/03/30 11:19:02;;;;;;;54.23;30.67;;;11.20;99.90;;;;;;5023376;28;20474;-69
2022/03/30 11:21:29;;;;;;;51.57;29.50;;;11.00;99.90;;;;;;5020649;28;20200;-69
2022/03/30 11:24:19;;;;;;;47.93;28.97;;;11.20;99.90;;;;;;5022093;28;20466;-69
2022/03/30 11:26:48;;;;;;;50.70;30.50;;;11.20;99.90;;;;;;5024837;28;20836;-69
2022/03/30 11:29:47;;;;;;;41.53;27.57;;;11.40;99.90;;;;;;5021986;28;20427;-68
2022/03/30 11:32:18;;;;;;;37.23;25.43;;;11.50;99.90;;;;;;5022963;28;20458;-68
2022/03/30 11:34:49;;;;;;;43.00;27.40;;;11.60;99.90;;;;;;5028442;28;20431;-69
2022/03/30 11:37:15;;;;;;;41.47;26.33;;;11.50;99.90;;;;;;5026403;28;20430;-68
2022/03/30 11:39:41;;;;;;;46.10;26.60;;;11.40;99.90;;;;;;5026574;28;20800;-68
2022/03/30 11:42:07;;;;;;;41.73;26.67;;;11.40;99.90;;;;;;5024668;28;20458;-69
2022/03/30 11:47:24;;;;;;;42.20;26.27;;;11.60;99.90;;;;;;5025430;28;20506;-69
2022/03/30 11:49:55;;;;;;;40.80;26.90;;;11.70;99.90;;;;;;5026326;28;20415;-69
2022/03/30 11:52:22;;;;;;;49.20;27.03;;;11.70;99.90;;;;;;5026690;28;20521;-69
2022/03/30 11:54:49;;;;;;;43.93;27.97;;;11.80;99.90;;;;;;5025099;28;20443;-69
2022/03/30 11:57:16;;;;;;;46.07;29.43;;;11.80;99.90;;;;;;5026591;28;20449;-69
2022/03/30 11:59:42;;;;;;;41.80;27.93;;;11.90;99.90;;;;;;5021274;28;20519;-68
2022/03/30 12:02:08;;;;;;;40.10;27.77;;;11.90;99.90;;;;;;5025528;28;20832;-68
2022/03/30 12:04:34;;;;;;;44.60;28.40;;;12.10;99.90;;;;;;5025502;28;20455;-68
2022/03/30 12:07:01;;;;;;;40.50;28.17;;;12.20;99.90;;;;;;5025286;28;20423;-69
2022/03/30 12:09:26;;;;;;;39.07;27.23;;;12.20;99.90;;;;;;5025317;28;20948;-69
2022/03/30 12:11:52;;;;;;;36.63;25.30;;;12.30;99.90;;;;;;5023755;28;20463;-69
2022/03/30 12:14:25;;;;;;;45.33;27.20;;;12.30;99.90;;;;;;5026045;28;20637;-68
2022/03/30 12:16:51;;;;;;;39.80;24.73;;;12.20;99.90;;;;;;5023990;28;20185;-68
2022/03/30 12:19:17;;;;;;;34.43;24.57;;;12.30;99.90;;;;;;5025589;28;20439;-68
2022/03/30 12:21:42;;;;;;;39.33;25.63;;;12.30;99.90;;;;;;5023015;28;20724;-68
2022/03/30 12:24:11;;;;;;;39.67;26.20;;;12.30;99.90;;;;;;5025172;28;20697;-68
2022/03/30 12:26:40;;;;;;;38.87;25.63;;;12.40;99.90;;;;;;5026251;28;20238;-67
2022/03/30 12:29:12;;;;;;;38.57;25.67;;;12.40;99.90;;;;;;5025036;28;20480;-68
2022/03/30 12:31:41;;;;;;;36.80;25.20;;;12.50;99.90;;;;;;5024738;28;21058;-69
2022/03/30 12:34:12;;;;;;;40.47;26.83;;;12.40;99.90;;;;;;5024321;28;20449;-69
2022/03/30 12:36:47;;;;;;;37.77;23.63;;;12.70;99.90;;;;;;5026308;28;20489;-69
2022/03/30 12:39:24;;;;;;;37.30;25.47;;;12.90;99.90;;;;;;5024981;28;20525;-69
2022/03/30 12:42:00;;;;;;;36.20;24.20;;;13.00;99.90;;;;;;5025325;28;20461;-69